sensor_id;sensor_type;location;lat;lon;timestamp;P1;durP1;ratioP1;P2;durP2;ratioP2
9771;SDS011;4925;52.588;13.370;2022-12-07T00:01:13;10.87;;;6.60;;
9771;SDS011;4925;52.588;13.370;2022-12-07T00:04:06;11.97;;;7.27;;
9771;SDS011;4925;52.588;13.370;2022-12-07T00:06:34;9.47;;;6.83;;
9771;SDS011;4925;52.588;13.370;2022-12-07T00:09:03;14.03;;;9.00;;
9771;SDS011;4925;52.588;13.370;2022-12-07T00:11:30;10.53;;;6.80;;
9771;SDS011;4925;52.588;13.370;2022-12-07T00:13:57;11.07;;;6.10;;
9771;SDS011;4925;52.588;13.370;2022-12-07T00:16:25;10.00;;;6.67;;
9771;SDS011;4925;52.588;13.370;2022-12-07T00:18:53;9.73;;;6.83;;
9771;SDS011;4925;52.588;13.370;2022-12-07T00:21:29;9.33;;;6.83;;
9771;SDS011;4925;52.588;13.370;2022-12-07T00:23:56;10.10;;;7.10;;
9771;SDS011;4925;52.588;13.370;2022-12-07T00:26:23;8.27;;;5.97;;
9771;SDS011;4925;52.588;13.370;2022-12-07T00:28:53;12.97;;;9.00;;
9771;SDS011;4925;52.588;13.370;2022-12-07T00:31:21;11.50;;;6.53;;
9771;SDS011;4925;52.588;13.370;2022-12-07T00:33:49;11.63;;;8.47;;
9771;SDS011;4925;52.588;13.370;2022-12-07T00:36:16;6.53;;;5.50;;
9771;SDS011;4925;52.588;13.370;2022-12-07T00:38:44;9.90;;;7.20;;
9771;SDS011;4925;52.588;13.370;2022-12-07T00:41:16;11.83;;;7.60;;
9771;SDS011;4925;52.588;13.370;2022-12-07T00:43:44;11.57;;;8.77;;
9771;SDS011;4925;52.588;13.370;2022-12-07T00:46:11;15.57;;;10.00;;
9771;SDS011;4925;52.588;13.370;2022-12-07T00:48:37;9.13;;;6.00;;
9771;SDS011;4925;52.588;13.370;2022-12-07T00:51:03;10.47;;;7.80;;
9771;SDS011;4925;52.588;13.370;2022-12-07T00:53:29;10.70;;;7.23;;
9771;SDS011;4925;52.588;13.370;2022-12-07T00:55:55;9.40;;;6.40;;
9771;SDS011;4925;52.588;13.370;2022-12-07T00:58:21;10.77;;;8.27;;
9771;SDS011;4925;52.588;13.370;2022-12-07T01:00:48;8.73;;;6.50;;
9771;SDS011;4925;52.588;13.370;2022-12-07T01:03:14;9.07;;;6.37;;
9771;SDS011;4925;52.588;13.370;2022-12-07T01:05:48;10.23;;;6.47;;
9771;SDS011;4925;52.588;13.370;2022-12-07T01:08:18;11.13;;;6.63;;
9771;SDS011;4925;52.588;13.370;2022-12-07T01:10:43;8.17;;;6.27;;
9771;SDS011;4925;52.588;13.370;2022-12-07T01:13:09;8.10;;;5.57;;
9771;SDS011;4925;52.588;13.370;2022-12-07T01:15:38;8.73;;;6.40;;
9771;SDS011;4925;52.588;13.370;2022-12-07T01:18:09;9.87;;;6.10;;
9771;SDS011;4925;52.588;13.370;2022-12-07T01:20:35;6.80;;;5.80;;
9771;SDS011;4925;52.588;13.370;2022-12-07T01:23:01;7.77;;;6.63;;
9771;SDS011;4925;52.588;13.370;2022-12-07T01:25:27;8.20;;;6.23;;
9771;SDS011;4925;52.588;13.370;2022-12-07T01:27:52;7.77;;;6.00;;
9771;SDS011;4925;52.588;13.370;2022-12-07T01:30:18;7.73;;;5.60;;
9771;SDS011;4925;52.588;13.370;2022-12-07T01:32:44;9.67;;;5.53;;
9771;SDS011;4925;52.588;13.370;2022-12-07T01:35:09;8.87;;;5.90;;
9771;SDS011;4925;52.588;13.370;2022-12-07T01:37:36;8.20;;;5.27;;
9771;SDS011;4925;52.588;13.370;2022-12-07T01:40:06;8.07;;;5.80;;
9771;SDS011;4925;52.588;13.370;2022-12-07T01:42:33;7.10;;;5.00;;
9771;SDS011;4925;52.588;13.370;2022-12-07T01:47:47;7.77;;;5.33;;
9771;SDS011;4925;52.588;13.370;2022-12-07T01:50:21;7.50;;;5.83;;
9771;SDS011;4925;52.588;13.370;2022-12-07T01:52:50;6.10;;;5.33;;
9771;SDS011;4925;52.588;13.370;2022-12-07T01:55:18;7.33;;;5.17;;
9771;SDS011;4925;52.588;13.370;2022-12-07T01:57:45;7.53;;;5.97;;
9771;SDS011;4925;52.588;13.370;2022-12-07T02:00:14;6.23;;;5.03;;
9771;SDS011;4925;52.588;13.370;2022-12-07T02:02:47;7.03;;;5.30;;
9771;SDS011;4925;52.588;13.370;2022-12-07T02:05:20;5.80;;;5.10;;
9771;SDS011;4925;52.588;13.370;2022-12-07T02:07:47;7.83;;;5.17;;
9771;SDS011;4925;52.588;13.370;2022-12-07T02:10:15;6.60;;;4.97;;
9771;SDS011;4925;52.588;13.370;2022-12-07T02:12:42;5.23;;;4.13;;
9771;SDS011;4925;52.588;13.370;2022-12-07T02:15:11;5.23;;;4.37;;
9771;SDS011;4925;52.588;13.370;2022-12-07T02:17:41;4.93;;;4.43;;
9771;SDS011;4925;52.588;13.370;2022-12-07T02:20:21;5.90;;;4.77;;
9771;SDS011;4925;52.588;13.370;2022-12-07T02:27:59;5.37;;;4.07;;
9771;SDS011;4925;52.588;13.370;2022-12-07T02:30:43;5.70;;;4.60;;
9771;SDS011;4925;52.588;13.370;2022-12-07T02:33:26;5.90;;;4.10;;
9771;SDS011;4925;52.588;13.370;2022-12-07T02:35:59;6.03;;;4.30;;
9771;SDS011;4925;52.588;13.370;2022-12-07T02:38:37;5.33;;;4.13;;
9771;SDS011;4925;52.588;13.370;2022-12-07T02:41:13;5.50;;;4.33;;
9771;SDS011;4925;52.588;13.370;2022-12-07T02:43:53;5.47;;;4.30;;
9771;SDS011;4925;52.588;13.370;2022-12-07T02:46:24;9.77;;;4.37;;
9771;SDS011;4925;52.588;13.370;2022-12-07T02:48:53;7.40;;;4.70;;
9771;SDS011;4925;52.588;13.370;2022-12-07T02:51:21;6.30;;;4.60;;
9771;SDS011;4925;52.588;13.370;2022-12-07T02:53:47;6.63;;;4.83;;
9771;SDS011;4925;52.588;13.370;2022-12-07T03:10:28;7.27;;;5.63;;
9771;SDS011;4925;52.588;13.370;2022-12-07T03:18:18;7.27;;;4.77;;
9771;SDS011;4925;52.588;13.370;2022-12-07T03:20:46;11.20;;;6.00;;
9771;SDS011;4925;52.588;13.370;2022-12-07T03:23:16;8.30;;;6.53;;
9771;SDS011;4925;52.588;13.370;2022-12-07T03:25:48;9.27;;;5.77;;
9771;SDS011;4925;52.588;13.370;2022-12-07T03:28:18;12.50;;;7.03;;
9771;SDS011;4925;52.588;13.370;2022-12-07T03:31:31;15.93;;;10.10;;
9771;SDS011;4925;52.588;13.370;2022-12-07T03:36:28;13.73;;;9.30;;
9771;SDS011;4925;52.588;13.370;2022-12-07T03:39:03;18.00;;;11.23;;
9771;SDS011;4925;52.588;13.370;2022-12-07T03:41:53;13.87;;;9.17;;
9771;SDS011;4925;52.588;13.370;2022-12-07T03:44:20;14.60;;;10.37;;
9771;SDS011;4925;52.588;13.370;2022-12-07T03:46:50;17.93;;;9.20;;
9771;SDS011;4925;52.588;13.370;2022-12-07T03:49:28;16.77;;;10.10;;
9771;SDS011;4925;52.588;13.370;2022-12-07T03:54:39;17.90;;;11.10;;
9771;SDS011;4925;52.588;13.370;2022-12-07T03:57:25;17.97;;;10.53;;
9771;SDS011;4925;52.588;13.370;2022-12-07T03:59:53;15.57;;;9.83;;
9771;SDS011;4925;52.588;13.370;2022-12-07T04:02:21;18.13;;;10.70;;
9771;SDS011;4925;52.588;13.370;2022-12-07T04:04:48;16.30;;;8.97;;
9771;SDS011;4925;52.588;13.370;2022-12-07T04:07:14;13.63;;;9.00;;
9771;SDS011;4925;52.588;13.370;2022-12-07T04:09:40;13.40;;;9.07;;
9771;SDS011;4925;52.588;13.370;2022-12-07T04:12:06;14.53;;;9.20;;
9771;SDS011;4925;52.588;13.370;2022-12-07T04:14:32;15.50;;;9.53;;
9771;SDS011;4925;52.588;13.370;2022-12-07T04:16:59;15.03;;;9.97;;
9771;SDS011;4925;52.588;13.370;2022-12-07T04:19:26;14.23;;;9.53;;
9771;SDS011;4925;52.588;13.370;2022-12-07T04:21:53;15.57;;;9.43;;
9771;SDS011;4925;52.588;13.370;2022-12-07T04:24:20;12.67;;;9.30;;
9771;SDS011;4925;52.588;13.370;2022-12-07T04:26:46;15.13;;;9.97;;
9771;SDS011;4925;52.588;13.370;2022-12-07T04:29:13;15.40;;;9.70;;
9771;SDS011;4925;52.588;13.370;2022-12-07T04:31:39;15.80;;;10.47;;
9771;SDS011;4925;52.588;13.370;2022-12-07T04:34:05;15.47;;;10.63;;
9771;SDS011;4925;52.588;13.370;2022-12-07T04:36:31;18.40;;;11.07;;
9771;SDS011;4925;52.588;13.370;2022-12-07T04:38:57;16.77;;;9.70;;
9771;SDS011;4925;52.588;13.370;2022-12-07T04:41:23;17.83;;;10.43;;
9771;SDS011;4925;52.588;13.370;2022-12-07T04:43:56;17.17;;;10.30;;
9771;SDS011;4925;52.588;13.370;2022-12-07T04:46:23;15.07;;;11.47;;
9771;SDS011;4925;52.588;13.370;2022-12-07T04:48:50;15.77;;;10.87;;
9771;SDS011;4925;52.588;13.370;2022-12-07T04:51:18;20.73;;;12.40;;
9771;SDS011;4925;52.588;13.370;2022-12-07T04:53:51;20.00;;;11.60;;
9771;SDS011;4925;52.588;13.370;2022-12-07T04:56:17;17.93;;;12.07;;
9771;SDS011;4925;52.588;13.370;2022-12-07T04:58:43;19.70;;;12.50;;
9771;SDS011;4925;52.588;13.370;2022-12-07T05:01:10;18.10;;;11.73;;
9771;SDS011;4925;52.588;13.370;2022-12-07T05:03:36;19.70;;;13.27;;
9771;SDS011;4925;52.588;13.370;2022-12-07T05:06:03;21.63;;;12.87;;
9771;SDS011;4925;52.588;13.370;2022-12-07T05:08:29;19.47;;;12.60;;
9771;SDS011;4925;52.588;13.370;2022-12-07T05:10:54;21.47;;;12.73;;
9771;SDS011;4925;52.588;13.370;2022-12-07T05:13:20;22.07;;;13.70;;
9771;SDS011;4925;52.588;13.370;2022-12-07T05:15:46;22.80;;;14.00;;
9771;SDS011;4925;52.588;13.370;2022-12-07T05:18:12;23.83;;;13.97;;
9771;SDS011;4925;52.588;13.370;2022-12-07T05:20:39;25.90;;;14.73;;
9771;SDS011;4925;52.588;13.370;2022-12-07T05:23:05;23.73;;;14.63;;
9771;SDS011;4925;52.588;13.370;2022-12-07T05:25:31;28.60;;;15.63;;
9771;SDS011;4925;52.588;13.370;2022-12-07T05:27:56;26.60;;;15.07;;
9771;SDS011;4925;52.588;13.370;2022-12-07T05:30:22;22.47;;;14.90;;
9771;SDS011;4925;52.588;13.370;2022-12-07T05:32:49;24.40;;;15.13;;
9771;SDS011;4925;52.588;13.370;2022-12-07T05:35:16;27.07;;;14.33;;
9771;SDS011;4925;52.588;13.370;2022-12-07T05:37:42;27.50;;;15.50;;
9771;SDS011;4925;52.588;13.370;2022-12-07T05:40:08;23.00;;;14.23;;
9771;SDS011;4925;52.588;13.370;2022-12-07T05:42:35;33.57;;;16.30;;
9771;SDS011;4925;52.588;13.370;2022-12-07T05:45:00;23.57;;;16.07;;
9771;SDS011;4925;52.588;13.370;2022-12-07T05:47:26;32.20;;;16.13;;
9771;SDS011;4925;52.588;13.370;2022-12-07T05:49:52;23.97;;;15.67;;
9771;SDS011;4925;52.588;13.370;2022-12-07T05:52:18;28.83;;;15.63;;
9771;SDS011;4925;52.588;13.370;2022-12-07T05:54:44;26.27;;;14.93;;
9771;SDS011;4925;52.588;13.370;2022-12-07T05:57:09;23.37;;;15.90;;
9771;SDS011;4925;52.588;13.370;2022-12-07T05:59:35;21.87;;;14.37;;
9771;SDS011;4925;52.588;13.370;2022-12-07T06:02:02;26.50;;;15.00;;
9771;SDS011;4925;52.588;13.370;2022-12-07T06:04:31;26.07;;;14.87;;
9771;SDS011;4925;52.588;13.370;2022-12-07T06:06:58;23.53;;;14.67;;
9771;SDS011;4925;52.588;13.370;2022-12-07T06:09:24;24.60;;;14.70;;
9771;SDS011;4925;52.588;13.370;2022-12-07T06:11:52;23.23;;;14.67;;
9771;SDS011;4925;52.588;13.370;2022-12-07T06:14:37;26.60;;;16.37;;
9771;SDS011;4925;52.588;13.370;2022-12-07T06:17:03;25.00;;;15.70;;
9771;SDS011;4925;52.588;13.370;2022-12-07T06:19:29;26.77;;;14.53;;
9771;SDS011;4925;52.588;13.370;2022-12-07T06:21:54;25.33;;;14.30;;
9771;SDS011;4925;52.588;13.370;2022-12-07T06:24:21;24.67;;;14.30;;
9771;SDS011;4925;52.588;13.370;2022-12-07T06:26:47;25.97;;;13.50;;
9771;SDS011;4925;52.588;13.370;2022-12-07T06:29:13;22.00;;;13.83;;
9771;SDS011;4925;52.588;13.370;2022-12-07T06:31:38;24.87;;;14.20;;
9771;SDS011;4925;52.588;13.370;2022-12-07T06:34:05;18.63;;;12.00;;
9771;SDS011;4925;52.588;13.370;2022-12-07T06:36:34;21.70;;;13.80;;
9771;SDS011;4925;52.588;13.370;2022-12-07T06:38:59;19.53;;;12.60;;
9771;SDS011;4925;52.588;13.370;2022-12-07T06:41:25;19.03;;;12.40;;
9771;SDS011;4925;52.588;13.370;2022-12-07T06:43:51;24.67;;;13.93;;
9771;SDS011;4925;52.588;13.370;2022-12-07T06:46:17;25.27;;;13.77;;
9771;SDS011;4925;52.588;13.370;2022-12-07T06:48:46;23.10;;;13.73;;
9771;SDS011;4925;52.588;13.370;2022-12-07T06:51:29;23.20;;;13.80;;
9771;SDS011;4925;52.588;13.370;2022-12-07T06:53:56;22.13;;;12.00;;
9771;SDS011;4925;52.588;13.370;2022-12-07T06:56:22;24.93;;;14.00;;
9771;SDS011;4925;52.588;13.370;2022-12-07T06:58:49;23.33;;;14.67;;
9771;SDS011;4925;52.588;13.370;2022-12-07T07:01:15;23.73;;;13.67;;
9771;SDS011;4925;52.588;13.370;2022-12-07T07:03:43;24.97;;;14.20;;
9771;SDS011;4925;52.588;13.370;2022-12-07T07:06:10;25.43;;;14.63;;
9771;SDS011;4925;52.588;13.370;2022-12-07T07:08:37;20.10;;;11.70;;
9771;SDS011;4925;52.588;13.370;2022-12-07T07:11:03;27.53;;;14.70;;
9771;SDS011;4925;52.588;13.370;2022-12-07T07:13:30;23.47;;;13.47;;
9771;SDS011;4925;52.588;13.370;2022-12-07T07:15:56;21.20;;;13.37;;
9771;SDS011;4925;52.588;13.370;2022-12-07T07:18:22;25.53;;;13.77;;
9771;SDS011;4925;52.588;13.370;2022-12-07T07:20:48;21.40;;;13.13;;
9771;SDS011;4925;52.588;13.370;2022-12-07T07:23:14;19.40;;;13.33;;
9771;SDS011;4925;52.588;13.370;2022-12-07T07:25:40;20.43;;;12.23;;
9771;SDS011;4925;52.588;13.370;2022-12-07T07:28:06;25.17;;;13.90;;
9771;SDS011;4925;52.588;13.370;2022-12-07T07:30:32;25.97;;;12.57;;
9771;SDS011;4925;52.588;13.370;2022-12-07T07:32:58;24.63;;;13.87;;
9771;SDS011;4925;52.588;13.370;2022-12-07T07:35:24;22.80;;;12.70;;
9771;SDS011;4925;52.588;13.370;2022-12-07T07:37:50;19.40;;;11.87;;
9771;SDS011;4925;52.588;13.370;2022-12-07T07:40:25;17.50;;;11.57;;
9771;SDS011;4925;52.588;13.370;2022-12-07T07:42:55;19.87;;;10.80;;
9771;SDS011;4925;52.588;13.370;2022-12-07T07:45:21;17.20;;;10.30;;
9771;SDS011;4925;52.588;13.370;2022-12-07T07:47:48;19.37;;;11.70;;
9771;SDS011;4925;52.588;13.370;2022-12-07T07:50:14;14.53;;;8.90;;
9771;SDS011;4925;52.588;13.370;2022-12-07T07:52:41;15.47;;;8.43;;
9771;SDS011;4925;52.588;13.370;2022-12-07T07:55:07;11.07;;;7.37;;
9771;SDS011;4925;52.588;13.370;2022-12-07T07:57:36;12.87;;;7.60;;
9771;SDS011;4925;52.588;13.370;2022-12-07T08:00:03;10.40;;;6.33;;
9771;SDS011;4925;52.588;13.370;2022-12-07T08:02:31;10.90;;;6.77;;
9771;SDS011;4925;52.588;13.370;2022-12-07T08:04:57;9.73;;;6.40;;
9771;SDS011;4925;52.588;13.370;2022-12-07T08:07:23;10.33;;;6.23;;
9771;SDS011;4925;52.588;13.370;2022-12-07T08:09:48;16.00;;;8.70;;
9771;SDS011;4925;52.588;13.370;2022-12-07T08:12:14;14.73;;;7.90;;
9771;SDS011;4925;52.588;13.370;2022-12-07T08:14:40;23.53;;;10.10;;
9771;SDS011;4925;52.588;13.370;2022-12-07T08:17:06;10.37;;;6.40;;
9771;SDS011;4925;52.588;13.370;2022-12-07T08:19:32;11.43;;;6.33;;
9771;SDS011;4925;52.588;13.370;2022-12-07T08:21:58;11.73;;;5.13;;
9771;SDS011;4925;52.588;13.370;2022-12-07T08:24:23;10.63;;;6.17;;
9771;SDS011;4925;52.588;13.370;2022-12-07T08:26:50;9.43;;;5.07;;
9771;SDS011;4925;52.588;13.370;2022-12-07T08:29:16;8.50;;;5.17;;
9771;SDS011;4925;52.588;13.370;2022-12-07T08:31:41;5.60;;;3.80;;
9771;SDS011;4925;52.588;13.370;2022-12-07T08:34:07;5.60;;;3.60;;
9771;SDS011;4925;52.588;13.370;2022-12-07T08:36:36;4.70;;;3.83;;
9771;SDS011;4925;52.588;13.370;2022-12-07T08:39:01;5.53;;;3.90;;
9771;SDS011;4925;52.588;13.370;2022-12-07T08:41:27;5.50;;;3.33;;
9771;SDS011;4925;52.588;13.370;2022-12-07T08:43:53;4.97;;;3.97;;
9771;SDS011;4925;52.588;13.370;2022-12-07T08:46:53;5.10;;;4.03;;
9771;SDS011;4925;52.588;13.370;2022-12-07T08:49:22;4.77;;;3.23;;
9771;SDS011;4925;52.588;13.370;2022-12-07T08:51:52;5.60;;;3.80;;
9771;SDS011;4925;52.588;13.370;2022-12-07T08:54:19;4.47;;;3.17;;
9771;SDS011;4925;52.588;13.370;2022-12-07T08:56:45;3.90;;;3.30;;
9771;SDS011;4925;52.588;13.370;2022-12-07T08:59:12;5.43;;;3.60;;
9771;SDS011;4925;52.588;13.370;2022-12-07T09:01:40;7.30;;;3.40;;
9771;SDS011;4925;52.588;13.370;2022-12-07T09:04:06;3.57;;;2.93;;
9771;SDS011;4925;52.588;13.370;2022-12-07T09:06:32;4.03;;;2.53;;
9771;SDS011;4925;52.588;13.370;2022-12-07T09:08:58;5.13;;;3.73;;
9771;SDS011;4925;52.588;13.370;2022-12-07T09:11:26;4.80;;;2.97;;
9771;SDS011;4925;52.588;13.370;2022-12-07T09:13:51;2.97;;;2.60;;
9771;SDS011;4925;52.588;13.370;2022-12-07T09:16:17;2.33;;;2.13;;
9771;SDS011;4925;52.588;13.370;2022-12-07T09:18:43;2.77;;;2.50;;
9771;SDS011;4925;52.588;13.370;2022-12-07T09:21:09;2.17;;;1.80;;
9771;SDS011;4925;52.588;13.370;2022-12-07T09:23:34;1.87;;;1.73;;
9771;SDS011;4925;52.588;13.370;2022-12-07T09:26:01;1.47;;;1.37;;
9771;SDS011;4925;52.588;13.370;2022-12-07T09:28:29;1.20;;;1.10;;
9771;SDS011;4925;52.588;13.370;2022-12-07T09:30:56;1.73;;;1.40;;
9771;SDS011;4925;52.588;13.370;2022-12-07T09:33:21;1.83;;;1.53;;
9771;SDS011;4925;52.588;13.370;2022-12-07T09:35:48;1.77;;;1.67;;
9771;SDS011;4925;52.588;13.370;2022-12-07T09:38:15;7.67;;;4.57;;
9771;SDS011;4925;52.588;13.370;2022-12-07T09:40:42;2.53;;;2.23;;
9771;SDS011;4925;52.588;13.370;2022-12-07T09:43:12;1.90;;;1.80;;
9771;SDS011;4925;52.588;13.370;2022-12-07T09:45:39;2.93;;;1.70;;
9771;SDS011;4925;52.588;13.370;2022-12-07T09:48:09;1.63;;;1.33;;
9771;SDS011;4925;52.588;13.370;2022-12-07T09:51:01;2.17;;;1.97;;
9771;SDS011;4925;52.588;13.370;2022-12-07T09:53:36;4.80;;;2.17;;
9771;SDS011;4925;52.588;13.370;2022-12-07T09:56:03;2.23;;;1.87;;
9771;SDS011;4925;52.588;13.370;2022-12-07T09:58:30;1.73;;;1.63;;
9771;SDS011;4925;52.588;13.370;2022-12-07T10:01:20;1.10;;;1.10;;
9771;SDS011;4925;52.588;13.370;2022-12-07T10:03:55;2.10;;;1.17;;
9771;SDS011;4925;52.588;13.370;2022-12-07T10:06:35;1.73;;;1.40;;
9771;SDS011;4925;52.588;13.370;2022-12-07T10:09:01;1.43;;;1.33;;
9771;SDS011;4925;52.588;13.370;2022-12-07T10:11:27;2.93;;;1.57;;
9771;SDS011;4925;52.588;13.370;2022-12-07T10:13:53;1.40;;;1.33;;
9771;SDS011;4925;52.588;13.370;2022-12-07T10:18:51;1.50;;;1.40;;
9771;SDS011;4925;52.588;13.370;2022-12-07T10:21:18;2.77;;;1.30;;
9771;SDS011;4925;52.588;13.370;2022-12-07T10:29:20;2.50;;;1.30;;
9771;SDS011;4925;52.588;13.370;2022-12-07T10:31:48;1.73;;;1.07;;
9771;SDS011;4925;52.588;13.370;2022-12-07T10:36:49;1.50;;;1.40;;
9771;SDS011;4925;52.588;13.370;2022-12-07T10:39:20;3.03;;;1.53;;
9771;SDS011;4925;52.588;13.370;2022-12-07T10:41:54;1.50;;;1.40;;
9771;SDS011;4925;52.588;13.370;2022-12-07T10:44:29;2.50;;;1.50;;
9771;SDS011;4925;52.588;13.370;2022-12-07T10:54:52;2.10;;;1.47;;
9771;SDS011;4925;52.588;13.370;2022-12-07T11:00:18;19.57;;;9.90;;
9771;SDS011;4925;52.588;13.370;2022-12-07T11:02:54;5.63;;;3.03;;
9771;SDS011;4925;52.588;13.370;2022-12-07T11:11:55;2.37;;;2.10;;
9771;SDS011;4925;52.588;13.370;2022-12-07T11:14:49;2.00;;;1.90;;
9771;SDS011;4925;52.588;13.370;2022-12-07T11:17:45;2.47;;;2.13;;
9771;SDS011;4925;52.588;13.370;2022-12-07T11:24:04;1.97;;;1.87;;
9771;SDS011;4925;52.588;13.370;2022-12-07T11:37:32;2.40;;;1.97;;
9771;SDS011;4925;52.588;13.370;2022-12-07T11:40:04;2.57;;;2.20;;
9771;SDS011;4925;52.588;13.370;2022-12-07T11:42:52;6.53;;;2.37;;
9771;SDS011;4925;52.588;13.370;2022-12-07T11:45:38;2.00;;;1.87;;
9771;SDS011;4925;52.588;13.370;2022-12-07T11:48:13;4.23;;;1.97;;
9771;SDS011;4925;52.588;13.370;2022-12-07T11:50:45;1.97;;;1.80;;
9771;SDS011;4925;52.588;13.370;2022-12-07T11:53:24;6.27;;;2.97;;
9771;SDS011;4925;52.588;13.370;2022-12-07T12:01:31;4.70;;;2.40;;
9771;SDS011;4925;52.588;13.370;2022-12-07T12:04:06;2.40;;;2.03;;
9771;SDS011;4925;52.588;13.370;2022-12-07T12:06:36;4.10;;;2.17;;
9771;SDS011;4925;52.588;13.370;2022-12-07T12:24:39;2.87;;;2.67;;
9771;SDS011;4925;52.588;13.370;2022-12-07T12:27:07;5.67;;;2.20;;
9771;SDS011;4925;52.588;13.370;2022-12-07T12:29:36;2.70;;;1.93;;
9771;SDS011;4925;52.588;13.370;2022-12-07T12:32:15;4.73;;;2.50;;
9771;SDS011;4925;52.588;13.370;2022-12-07T12:37:36;7.53;;;3.27;;
9771;SDS011;4925;52.588;13.370;2022-12-07T12:42:48;5.83;;;2.10;;
9771;SDS011;4925;52.588;13.370;2022-12-07T12:45:33;3.47;;;1.80;;
9771;SDS011;4925;52.588;13.370;2022-12-07T12:48:00;3.00;;;1.87;;
9771;SDS011;4925;52.588;13.370;2022-12-07T12:53:00;2.30;;;1.70;;
9771;SDS011;4925;52.588;13.370;2022-12-07T12:55:54;4.10;;;1.93;;
9771;SDS011;4925;52.588;13.370;2022-12-07T13:00:43;2.83;;;1.83;;
9771;SDS011;4925;52.588;13.370;2022-12-07T13:03:26;4.30;;;1.80;;
9771;SDS011;4925;52.588;13.370;2022-12-07T13:08:42;2.63;;;1.90;;
9771;SDS011;4925;52.588;13.370;2022-12-07T13:11:18;3.83;;;2.20;;
9771;SDS011;4925;52.588;13.370;2022-12-07T13:16:59;5.03;;;1.90;;
9771;SDS011;4925;52.588;13.370;2022-12-07T13:19:33;4.40;;;2.60;;
9771;SDS011;4925;52.588;13.370;2022-12-07T13:24:59;2.23;;;1.93;;
9771;SDS011;4925;52.588;13.370;2022-12-07T13:27:37;8.27;;;3.73;;
9771;SDS011;4925;52.588;13.370;2022-12-07T13:30:24;4.53;;;2.23;;
9771;SDS011;4925;52.588;13.370;2022-12-07T13:32:59;30.63;;;15.90;;
9771;SDS011;4925;52.588;13.370;2022-12-07T13:35:29;11.03;;;5.57;;
9771;SDS011;4925;52.588;13.370;2022-12-07T13:38:01;5.60;;;2.53;;
9771;SDS011;4925;52.588;13.370;2022-12-07T13:40:30;7.53;;;3.43;;
9771;SDS011;4925;52.588;13.370;2022-12-07T13:42:59;10.60;;;2.37;;
9771;SDS011;4925;52.588;13.370;2022-12-07T13:45:28;5.67;;;2.37;;
9771;SDS011;4925;52.588;13.370;2022-12-07T13:50:58;4.43;;;2.00;;
9771;SDS011;4925;52.588;13.370;2022-12-07T13:53:26;3.57;;;1.63;;
9771;SDS011;4925;52.588;13.370;2022-12-07T13:55:58;5.40;;;1.90;;
9771;SDS011;4925;52.588;13.370;2022-12-07T13:58:26;3.77;;;1.60;;
9771;SDS011;4925;52.588;13.370;2022-12-07T14:00:55;11.70;;;2.10;;
9771;SDS011;4925;52.588;13.370;2022-12-07T14:06:11;2.27;;;1.40;;
9771;SDS011;4925;52.588;13.370;2022-12-07T14:08:41;3.70;;;1.53;;
9771;SDS011;4925;52.588;13.370;2022-12-07T14:11:08;4.70;;;1.70;;
9771;SDS011;4925;52.588;13.370;2022-12-07T14:18:54;2.50;;;1.77;;
9771;SDS011;4925;52.588;13.370;2022-12-07T14:21:22;7.97;;;1.50;;
9771;SDS011;4925;52.588;13.370;2022-12-07T14:24:10;4.97;;;1.60;;
9771;SDS011;4925;52.588;13.370;2022-12-07T14:26:46;5.10;;;1.47;;
9771;SDS011;4925;52.588;13.370;2022-12-07T14:31:47;8.77;;;2.20;;
9771;SDS011;4925;52.588;13.370;2022-12-07T14:34:13;3.33;;;1.20;;
9771;SDS011;4925;52.588;13.370;2022-12-07T14:36:39;6.87;;;2.30;;
9771;SDS011;4925;52.588;13.370;2022-12-07T14:39:05;6.90;;;1.97;;
9771;SDS011;4925;52.588;13.370;2022-12-07T14:41:30;6.43;;;2.90;;
9771;SDS011;4925;52.588;13.370;2022-12-07T14:44:14;8.83;;;2.27;;
9771;SDS011;4925;52.588;13.370;2022-12-07T14:46:40;4.43;;;1.93;;
9771;SDS011;4925;52.588;13.370;2022-12-07T14:49:05;2.70;;;1.60;;
9771;SDS011;4925;52.588;13.370;2022-12-07T14:51:31;7.63;;;2.10;;
9771;SDS011;4925;52.588;13.370;2022-12-07T14:53:58;6.13;;;2.30;;
9771;SDS011;4925;52.588;13.370;2022-12-07T14:56:25;4.53;;;2.03;;
9771;SDS011;4925;52.588;13.370;2022-12-07T14:58:50;4.77;;;2.47;;
9771;SDS011;4925;52.588;13.370;2022-12-07T15:01:16;9.27;;;2.57;;
9771;SDS011;4925;52.588;13.370;2022-12-07T15:03:42;7.07;;;3.00;;
9771;SDS011;4925;52.588;13.370;2022-12-07T15:06:10;12.53;;;2.73;;
9771;SDS011;4925;52.588;13.370;2022-12-07T15:08:39;4.97;;;2.43;;
9771;SDS011;4925;52.588;13.370;2022-12-07T15:11:04;5.27;;;2.47;;
9771;SDS011;4925;52.588;13.370;2022-12-07T15:13:30;6.80;;;2.50;;
9771;SDS011;4925;52.588;13.370;2022-12-07T15:16:16;6.17;;;2.47;;
9771;SDS011;4925;52.588;13.370;2022-12-07T15:18:45;7.33;;;2.20;;
9771;SDS011;4925;52.588;13.370;2022-12-07T15:21:13;4.37;;;1.87;;
9771;SDS011;4925;52.588;13.370;2022-12-07T15:23:39;6.80;;;1.90;;
9771;SDS011;4925;52.588;13.370;2022-12-07T15:26:05;3.37;;;1.60;;
9771;SDS011;4925;52.588;13.370;2022-12-07T15:28:31;5.37;;;1.67;;
9771;SDS011;4925;52.588;13.370;2022-12-07T15:30:57;5.27;;;1.67;;
9771;SDS011;4925;52.588;13.370;2022-12-07T15:33:22;7.80;;;1.30;;
9771;SDS011;4925;52.588;13.370;2022-12-07T15:35:48;6.20;;;1.30;;
9771;SDS011;4925;52.588;13.370;2022-12-07T15:38:14;3.73;;;1.40;;
9771;SDS011;4925;52.588;13.370;2022-12-07T15:40:39;3.47;;;1.70;;
9771;SDS011;4925;52.588;13.370;2022-12-07T15:43:05;7.63;;;1.73;;
9771;SDS011;4925;52.588;13.370;2022-12-07T15:45:53;5.13;;;1.27;;
9771;SDS011;4925;52.588;13.370;2022-12-07T15:48:18;8.23;;;1.53;;
9771;SDS011;4925;52.588;13.370;2022-12-07T15:50:44;7.20;;;1.80;;
9771;SDS011;4925;52.588;13.370;2022-12-07T15:53:10;5.43;;;1.47;;
9771;SDS011;4925;52.588;13.370;2022-12-07T15:55:38;4.50;;;1.57;;
9771;SDS011;4925;52.588;13.370;2022-12-07T15:58:05;5.03;;;1.50;;
9771;SDS011;4925;52.588;13.370;2022-12-07T16:00:31;7.07;;;1.80;;
9771;SDS011;4925;52.588;13.370;2022-12-07T16:02:56;6.13;;;2.03;;
9771;SDS011;4925;52.588;13.370;2022-12-07T16:05:22;8.93;;;2.20;;
9771;SDS011;4925;52.588;13.370;2022-12-07T16:07:48;6.57;;;2.40;;
9771;SDS011;4925;52.588;13.370;2022-12-07T16:10:14;7.90;;;2.17;;
9771;SDS011;4925;52.588;13.370;2022-12-07T16:12:39;4.90;;;1.83;;
9771;SDS011;4925;52.588;13.370;2022-12-07T16:15:05;3.43;;;1.47;;
9771;SDS011;4925;52.588;13.370;2022-12-07T16:17:31;5.70;;;1.87;;
9771;SDS011;4925;52.588;13.370;2022-12-07T16:19:57;4.53;;;1.93;;
9771;SDS011;4925;52.588;13.370;2022-12-07T16:22:23;6.83;;;1.57;;
9771;SDS011;4925;52.588;13.370;2022-12-07T16:24:48;3.77;;;1.27;;
9771;SDS011;4925;52.588;13.370;2022-12-07T16:27:14;6.43;;;1.70;;
9771;SDS011;4925;52.588;13.370;2022-12-07T16:29:40;0.93;;;0.93;;
9771;SDS011;4925;52.588;13.370;2022-12-07T16:32:06;3.60;;;1.53;;
9771;SDS011;4925;52.588;13.370;2022-12-07T16:34:31;5.13;;;1.40;;
9771;SDS011;4925;52.588;13.370;2022-12-07T16:36:57;6.00;;;1.40;;
9771;SDS011;4925;52.588;13.370;2022-12-07T16:39:23;4.00;;;1.43;;
9771;SDS011;4925;52.588;13.370;2022-12-07T16:41:58;5.80;;;1.80;;
9771;SDS011;4925;52.588;13.370;2022-12-07T16:44:24;6.23;;;1.77;;
9771;SDS011;4925;52.588;13.370;2022-12-07T16:46:50;6.50;;;1.70;;
9771;SDS011;4925;52.588;13.370;2022-12-07T16:49:15;2.13;;;1.10;;
9771;SDS011;4925;52.588;13.370;2022-12-07T16:51:43;5.97;;;1.90;;
9771;SDS011;4925;52.588;13.370;2022-12-07T16:54:11;7.13;;;1.63;;
9771;SDS011;4925;52.588;13.370;2022-12-07T16:56:37;4.20;;;1.97;;
9771;SDS011;4925;52.588;13.370;2022-12-07T16:59:03;6.90;;;2.00;;
9771;SDS011;4925;52.588;13.370;2022-12-07T17:04:51;4.20;;;1.63;;
9771;SDS011;4925;52.588;13.370;2022-12-07T17:07:17;5.13;;;2.23;;
9771;SDS011;4925;52.588;13.370;2022-12-07T17:09:43;4.40;;;1.77;;
9771;SDS011;4925;52.588;13.370;2022-12-07T17:12:08;3.00;;;1.53;;
9771;SDS011;4925;52.588;13.370;2022-12-07T17:14:34;4.00;;;1.80;;
9771;SDS011;4925;52.588;13.370;2022-12-07T17:17:18;4.57;;;1.77;;